Airfield :
LOGIN :

Register | Disclaimer

   EN    FR    IT 

 










Legend :    VFR   Marginal VFR   IFR   Intensive IFR   Very Intensive IFR
Visi :
Ceiling :
>= 8 km
>= 3000ft
5 to 8 km
1000 to 3000 ft
1500m to 5 km
500 to 1000 ft
800 to 1500m
200 to 500 ft
< 800m
< 200 ft
Symbols :   Thunderstorms  Fog  Heavy snow  Heavy precipitations  Wind > 20 kt
SIGMETs :     Misc.  Thunderstorms  Icing  Turbulence  Mountain Waves  Volcanic Ashes






- Airport Elevation : 670 ft
- IATA code : MSQ


UMMS - Minsk - 2

CURRENT METAR :
  • 130700Z 15008MPS 3900 -DZ BR OVC004 01/00 Q1007 R88/290047 NOSIG RMK QBB140

EXPIRED METARs :
  • 130644Z 15006MPS 4100 -DZ BR OVC004 01/00 Q1007 R88/290047 NOSIG RMK QBB140
  • 130630Z 14006MPS 4500 -DZ BR OVC004 01/00 Q1007 R88/290047 NOSIG RMK QBB130
  • 130608Z 14005MPS 4800 -DZ BR OVC005 01/00 Q1007 R88/290047 NOSIG RMK QBB170
  • 130549Z 15005MPS 7000 -DZ OVC007 01/00 Q1008 R88/290047 NOSIG
  • 130535Z 14005G08MPS 6000 OVC007 01/00 Q1008 R88/290047 NOSIG
  • 130526Z 14005MPS 5000 BR OVC006 01/00 Q1008 R88/290047 NOSIG RMK QBB200
  • 130514Z 14005MPS 4900 BR OVC005 01/00 Q1008 R88/290047 NOSIG RMK QBB170
  • 130455Z 13004MPS 6000 -SHRASN BKN007 BKN026CB 01/00 Q1008 R88/290047 NOSIG
  • 130434Z 15006MPS 3900 -SHRASN BR BKN007 BKN018CB 01/00 Q1008 R88/190050 NOSIG
  • 130421Z 16006MPS 4900 -SHRASN BR BKN012CB 01/M00 Q1008 R88/190050 NOSIG
  • 130412Z 15005G08MPS 6000 -RA OVC011 01/M00 Q1008 R88/190050 NOSIG

TAF TAF UMMS
Valid from the 13 at 06:00 until the 14 at 06:00 UTC


130503Z 1306/1406 14005G10MPS 3000 BR BKN003
TEMPO 1306/1406 16009G14MPS 0800 -FZDZ +SHRASN BKN002 BKN012CB



MET'MAP, your aeronautical weather chart ! - Copyright ORBIFLY December 2007 - Disclaimer

ORBIFLY MET'MAP TEAM :

Programming & Development : Alexandra Zaïnal
Concept & original design : Baudouin d'Aumeries
Assistance for programming : Marc-Olivier Méhu
Technical & hardware support : Manuel Goepfert

Contact : metmap@orbifly.com




SOURCES & CREDITS :

   NOAA